sensor_id;sensor_type;location;lat;lon;timestamp;temperature;humidity
24678;DHT22;12800;53.094;8.778;2023-06-14T00:01:19;18.90;57.20
24678;DHT22;12800;53.094;8.778;2023-06-14T00:03:47;18.90;57.90
24678;DHT22;12800;53.094;8.778;2023-06-14T00:06:14;18.80;57.40
24678;DHT22;12800;53.094;8.778;2023-06-14T00:08:39;18.80;57.50
24678;DHT22;12800;53.094;8.778;2023-06-14T00:11:06;18.80;57.70
24678;DHT22;12800;53.094;8.778;2023-06-14T00:13:32;18.70;57.80
24678;DHT22;12800;53.094;8.778;2023-06-14T00:15:57;18.70;57.90
24678;DHT22;12800;53.094;8.778;2023-06-14T00:18:23;18.70;58.00
24678;DHT22;12800;53.094;8.778;2023-06-14T00:20:55;18.70;58.10
24678;DHT22;12800;53.094;8.778;2023-06-14T00:23:21;18.70;58.20
24678;DHT22;12800;53.094;8.778;2023-06-14T00:25:47;18.70;58.30
24678;DHT22;12800;53.094;8.778;2023-06-14T00:28:13;18.60;58.30
24678;DHT22;12800;53.094;8.778;2023-06-14T00:30:39;18.60;58.50
24678;DHT22;12800;53.094;8.778;2023-06-14T00:33:04;18.60;58.60
24678;DHT22;12800;53.094;8.778;2023-06-14T00:35:30;18.60;58.70
24678;DHT22;12800;53.094;8.778;2023-06-14T00:37:56;18.50;58.70
24678;DHT22;12800;53.094;8.778;2023-06-14T00:40:22;18.50;58.80
24678;DHT22;12800;53.094;8.778;2023-06-14T00:42:47;18.50;58.90
24678;DHT22;12800;53.094;8.778;2023-06-14T00:45:13;18.50;59.00
24678;DHT22;12800;53.094;8.778;2023-06-14T00:47:41;18.50;59.10
24678;DHT22;12800;53.094;8.778;2023-06-14T00:50:07;18.40;59.10
24678;DHT22;12800;53.094;8.778;2023-06-14T00:52:34;18.40;59.20
24678;DHT22;12800;53.094;8.778;2023-06-14T00:55:00;18.40;59.40
24678;DHT22;12800;53.094;8.778;2023-06-14T00:57:26;18.40;59.50
24678;DHT22;12800;53.094;8.778;2023-06-14T00:59:52;18.40;59.60
24678;DHT22;12800;53.094;8.778;2023-06-14T01:02:18;18.30;59.60
24678;DHT22;12800;53.094;8.778;2023-06-14T01:04:46;18.30;59.70
24678;DHT22;12800;53.094;8.778;2023-06-14T01:07:38;18.30;59.90
24678;DHT22;12800;53.094;8.778;2023-06-14T01:15:18;18.20;60.10
24678;DHT22;12800;53.094;8.778;2023-06-14T01:17:46;18.20;60.20
24678;DHT22;12800;53.094;8.778;2023-06-14T01:20:17;18.10;60.90
24678;DHT22;12800;53.094;8.778;2023-06-14T01:22:54;18.10;60.50
24678;DHT22;12800;53.094;8.778;2023-06-14T01:25:20;18.00;60.70
24678;DHT22;12800;53.094;8.778;2023-06-14T01:28:01;18.00;60.90
24678;DHT22;12800;53.094;8.778;2023-06-14T01:30:28;18.00;61.80
24678;DHT22;12800;53.094;8.778;2023-06-14T01:32:55;18.00;61.00
24678;DHT22;12800;53.094;8.778;2023-06-14T01:35:21;17.90;61.00
24678;DHT22;12800;53.094;8.778;2023-06-14T01:37:48;17.90;61.20
24678;DHT22;12800;53.094;8.778;2023-06-14T01:40:15;17.90;61.40
24678;DHT22;12800;53.094;8.778;2023-06-14T01:42:42;17.90;61.50
24678;DHT22;12800;53.094;8.778;2023-06-14T01:45:10;17.80;61.60
24678;DHT22;12800;53.094;8.778;2023-06-14T01:47:36;17.80;61.70
24678;DHT22;12800;53.094;8.778;2023-06-14T01:50:05;17.70;61.90
24678;DHT22;12800;53.094;8.778;2023-06-14T01:52:31;17.70;62.00
24678;DHT22;12800;53.094;8.778;2023-06-14T01:54:56;17.70;62.30
24678;DHT22;12800;53.094;8.778;2023-06-14T01:57:24;17.70;62.30
24678;DHT22;12800;53.094;8.778;2023-06-14T01:59:50;17.60;62.40
24678;DHT22;12800;53.094;8.778;2023-06-14T02:02:16;17.60;62.60
24678;DHT22;12800;53.094;8.778;2023-06-14T02:04:42;17.60;63.60
24678;DHT22;12800;53.094;8.778;2023-06-14T02:07:08;17.50;62.80
24678;DHT22;12800;53.094;8.778;2023-06-14T02:09:34;17.50;62.90
24678;DHT22;12800;53.094;8.778;2023-06-14T02:12:00;17.50;63.00
24678;DHT22;12800;53.094;8.778;2023-06-14T02:14:26;17.40;63.10
24678;DHT22;12800;53.094;8.778;2023-06-14T02:16:52;17.40;63.30
24678;DHT22;12800;53.094;8.778;2023-06-14T02:19:19;17.30;63.50
24678;DHT22;12800;53.094;8.778;2023-06-14T02:21:46;17.20;63.70
24678;DHT22;12800;53.094;8.778;2023-06-14T02:24:13;17.10;63.80
24678;DHT22;12800;53.094;8.778;2023-06-14T02:26:38;17.10;64.10
24678;DHT22;12800;53.094;8.778;2023-06-14T02:29:05;17.00;64.30
24678;DHT22;12800;53.094;8.778;2023-06-14T02:31:31;17.00;64.60
24678;DHT22;12800;53.094;8.778;2023-06-14T02:33:57;16.90;64.80
24678;DHT22;12800;53.094;8.778;2023-06-14T02:36:23;16.90;65.00
24678;DHT22;12800;53.094;8.778;2023-06-14T02:38:49;16.80;65.10
24678;DHT22;12800;53.094;8.778;2023-06-14T02:41:15;16.80;65.40
24678;DHT22;12800;53.094;8.778;2023-06-14T02:43:40;16.70;65.60
24678;DHT22;12800;53.094;8.778;2023-06-14T02:46:06;16.70;65.80
24678;DHT22;12800;53.094;8.778;2023-06-14T02:48:32;16.60;66.10
24678;DHT22;12800;53.094;8.778;2023-06-14T02:50:58;16.60;66.30
24678;DHT22;12800;53.094;8.778;2023-06-14T02:53:23;16.50;66.40
24678;DHT22;12800;53.094;8.778;2023-06-14T02:55:49;16.40;67.00
24678;DHT22;12800;53.094;8.778;2023-06-14T02:58:14;16.40;66.90
24678;DHT22;12800;53.094;8.778;2023-06-14T03:00:41;16.40;67.10
24678;DHT22;12800;53.094;8.778;2023-06-14T03:03:07;16.40;67.20
24678;DHT22;12800;53.094;8.778;2023-06-14T03:05:44;16.30;67.30
24678;DHT22;12800;53.094;8.778;2023-06-14T03:08:17;16.30;67.50
24678;DHT22;12800;53.094;8.778;2023-06-14T03:10:45;16.30;67.70
24678;DHT22;12800;53.094;8.778;2023-06-14T03:13:11;16.30;67.90
24678;DHT22;12800;53.094;8.778;2023-06-14T03:15:37;16.20;68.00
24678;DHT22;12800;53.094;8.778;2023-06-14T03:18:04;16.30;68.10
24678;DHT22;12800;53.094;8.778;2023-06-14T03:20:30;16.30;68.10
24678;DHT22;12800;53.094;8.778;2023-06-14T03:22:59;16.30;68.20
24678;DHT22;12800;53.094;8.778;2023-06-14T03:25:25;16.30;68.20
24678;DHT22;12800;53.094;8.778;2023-06-14T03:27:51;16.30;68.30
24678;DHT22;12800;53.094;8.778;2023-06-14T03:30:17;16.30;68.30
24678;DHT22;12800;53.094;8.778;2023-06-14T03:32:42;16.30;68.30
24678;DHT22;12800;53.094;8.778;2023-06-14T03:35:08;16.30;68.50
24678;DHT22;12800;53.094;8.778;2023-06-14T03:37:35;16.30;68.40
24678;DHT22;12800;53.094;8.778;2023-06-14T03:40:01;16.30;68.40
24678;DHT22;12800;53.094;8.778;2023-06-14T03:42:26;16.40;68.50
24678;DHT22;12800;53.094;8.778;2023-06-14T03:44:52;16.40;68.30
24678;DHT22;12800;53.094;8.778;2023-06-14T03:47:17;16.40;68.20
24678;DHT22;12800;53.094;8.778;2023-06-14T03:49:43;16.40;68.10
24678;DHT22;12800;53.094;8.778;2023-06-14T03:52:08;16.40;68.10
24678;DHT22;12800;53.094;8.778;2023-06-14T03:54:35;16.40;68.20
24678;DHT22;12800;53.094;8.778;2023-06-14T03:57:01;16.40;68.30
24678;DHT22;12800;53.094;8.778;2023-06-14T03:59:26;16.40;68.30
24678;DHT22;12800;53.094;8.778;2023-06-14T04:01:53;16.40;68.20
24678;DHT22;12800;53.094;8.778;2023-06-14T04:04:19;16.50;68.30
24678;DHT22;12800;53.094;8.778;2023-06-14T04:06:46;16.50;68.40
24678;DHT22;12800;53.094;8.778;2023-06-14T04:09:13;16.50;68.30
24678;DHT22;12800;53.094;8.778;2023-06-14T04:11:39;16.50;68.30
24678;DHT22;12800;53.094;8.778;2023-06-14T04:14:05;16.60;68.20
24678;DHT22;12800;53.094;8.778;2023-06-14T04:16:31;16.60;68.20
24678;DHT22;12800;53.094;8.778;2023-06-14T04:18:57;16.60;68.00
24678;DHT22;12800;53.094;8.778;2023-06-14T04:21:23;16.60;68.10
24678;DHT22;12800;53.094;8.778;2023-06-14T04:23:49;16.60;68.10
24678;DHT22;12800;53.094;8.778;2023-06-14T04:26:18;16.60;68.00
24678;DHT22;12800;53.094;8.778;2023-06-14T04:28:45;16.60;68.10
24678;DHT22;12800;53.094;8.778;2023-06-14T04:31:12;16.70;68.10
24678;DHT22;12800;53.094;8.778;2023-06-14T04:33:38;16.70;68.20
24678;DHT22;12800;53.094;8.778;2023-06-14T04:36:12;16.70;68.10
24678;DHT22;12800;53.094;8.778;2023-06-14T04:38:38;16.70;68.10
24678;DHT22;12800;53.094;8.778;2023-06-14T04:41:04;16.70;68.00
24678;DHT22;12800;53.094;8.778;2023-06-14T04:43:31;16.70;68.00
24678;DHT22;12800;53.094;8.778;2023-06-14T04:45:57;16.80;67.90
24678;DHT22;12800;53.094;8.778;2023-06-14T04:48:22;16.80;67.80
24678;DHT22;12800;53.094;8.778;2023-06-14T04:50:48;16.80;67.80
24678;DHT22;12800;53.094;8.778;2023-06-14T04:53:20;16.90;67.80
24678;DHT22;12800;53.094;8.778;2023-06-14T04:55:48;16.90;67.80
24678;DHT22;12800;53.094;8.778;2023-06-14T04:58:14;16.90;67.70
24678;DHT22;12800;53.094;8.778;2023-06-14T05:00:39;17.00;67.70
24678;DHT22;12800;53.094;8.778;2023-06-14T05:03:07;17.00;67.60
24678;DHT22;12800;53.094;8.778;2023-06-14T05:05:33;17.00;67.50
24678;DHT22;12800;53.094;8.778;2023-06-14T05:07:59;17.00;67.50
24678;DHT22;12800;53.094;8.778;2023-06-14T05:10:25;17.10;67.60
24678;DHT22;12800;53.094;8.778;2023-06-14T05:12:51;17.20;67.50
24678;DHT22;12800;53.094;8.778;2023-06-14T05:15:18;17.20;67.30
24678;DHT22;12800;53.094;8.778;2023-06-14T05:17:45;17.30;67.30
24678;DHT22;12800;53.094;8.778;2023-06-14T05:20:13;17.30;67.10
24678;DHT22;12800;53.094;8.778;2023-06-14T05:22:39;17.40;67.10
24678;DHT22;12800;53.094;8.778;2023-06-14T05:25:04;17.40;66.90
24678;DHT22;12800;53.094;8.778;2023-06-14T05:27:30;17.50;66.80
24678;DHT22;12800;53.094;8.778;2023-06-14T05:29:56;17.50;66.70
24678;DHT22;12800;53.094;8.778;2023-06-14T05:32:24;17.60;66.70
24678;DHT22;12800;53.094;8.778;2023-06-14T05:34:49;17.60;66.60
24678;DHT22;12800;53.094;8.778;2023-06-14T05:37:15;17.60;66.60
24678;DHT22;12800;53.094;8.778;2023-06-14T05:39:41;17.60;66.50
24678;DHT22;12800;53.094;8.778;2023-06-14T05:42:07;17.70;66.60
24678;DHT22;12800;53.094;8.778;2023-06-14T05:44:32;17.70;66.60
24678;DHT22;12800;53.094;8.778;2023-06-14T05:46:58;17.80;66.70
24678;DHT22;12800;53.094;8.778;2023-06-14T05:49:24;17.80;66.60
24678;DHT22;12800;53.094;8.778;2023-06-14T05:51:49;17.90;66.50
24678;DHT22;12800;53.094;8.778;2023-06-14T05:54:15;18.00;66.60
24678;DHT22;12800;53.094;8.778;2023-06-14T05:56:40;18.00;66.30
24678;DHT22;12800;53.094;8.778;2023-06-14T05:59:06;18.10;66.10
24678;DHT22;12800;53.094;8.778;2023-06-14T06:01:31;18.20;65.40
24678;DHT22;12800;53.094;8.778;2023-06-14T06:03:59;18.20;65.00
24678;DHT22;12800;53.094;8.778;2023-06-14T06:06:24;18.30;64.70
24678;DHT22;12800;53.094;8.778;2023-06-14T06:08:50;18.30;64.50
24678;DHT22;12800;53.094;8.778;2023-06-14T06:11:16;18.40;64.40
24678;DHT22;12800;53.094;8.778;2023-06-14T06:13:41;18.50;63.90
24678;DHT22;12800;53.094;8.778;2023-06-14T06:16:07;18.60;63.50
24678;DHT22;12800;53.094;8.778;2023-06-14T06:18:33;18.60;63.50
24678;DHT22;12800;53.094;8.778;2023-06-14T06:20:58;18.70;63.30
24678;DHT22;12800;53.094;8.778;2023-06-14T06:23:24;18.80;63.10
24678;DHT22;12800;53.094;8.778;2023-06-14T06:25:50;18.80;62.70
24678;DHT22;12800;53.094;8.778;2023-06-14T06:28:15;18.90;62.50
24678;DHT22;12800;53.094;8.778;2023-06-14T06:30:41;18.90;62.40
24678;DHT22;12800;53.094;8.778;2023-06-14T06:33:07;18.90;62.30
24678;DHT22;12800;53.094;8.778;2023-06-14T06:35:32;19.00;62.20
24678;DHT22;12800;53.094;8.778;2023-06-14T06:37:58;19.10;61.90
24678;DHT22;12800;53.094;8.778;2023-06-14T06:40:24;19.20;61.90
24678;DHT22;12800;53.094;8.778;2023-06-14T06:42:50;19.20;61.50
24678;DHT22;12800;53.094;8.778;2023-06-14T06:45:15;19.30;61.20
24678;DHT22;12800;53.094;8.778;2023-06-14T06:47:41;19.30;60.70
24678;DHT22;12800;53.094;8.778;2023-06-14T06:50:07;19.40;60.30
24678;DHT22;12800;53.094;8.778;2023-06-14T06:52:33;19.40;59.90
24678;DHT22;12800;53.094;8.778;2023-06-14T06:54:59;19.50;59.80
24678;DHT22;12800;53.094;8.778;2023-06-14T06:57:24;19.60;59.70
24678;DHT22;12800;53.094;8.778;2023-06-14T06:59:50;19.60;59.30
24678;DHT22;12800;53.094;8.778;2023-06-14T07:02:16;19.70;59.10
24678;DHT22;12800;53.094;8.778;2023-06-14T07:04:42;19.70;59.00
24678;DHT22;12800;53.094;8.778;2023-06-14T07:07:08;19.80;58.90
24678;DHT22;12800;53.094;8.778;2023-06-14T07:09:35;19.90;58.80
24678;DHT22;12800;53.094;8.778;2023-06-14T07:12:01;19.90;58.60
24678;DHT22;12800;53.094;8.778;2023-06-14T07:14:26;20.00;58.30
24678;DHT22;12800;53.094;8.778;2023-06-14T07:16:52;20.10;58.00
24678;DHT22;12800;53.094;8.778;2023-06-14T07:19:17;20.20;57.60
24678;DHT22;12800;53.094;8.778;2023-06-14T07:21:43;20.20;57.50
24678;DHT22;12800;53.094;8.778;2023-06-14T07:24:09;20.30;57.50
24678;DHT22;12800;53.094;8.778;2023-06-14T07:26:35;20.30;56.90
24678;DHT22;12800;53.094;8.778;2023-06-14T07:29:01;20.30;56.40
24678;DHT22;12800;53.094;8.778;2023-06-14T07:31:27;20.50;56.30
24678;DHT22;12800;53.094;8.778;2023-06-14T07:33:53;20.60;56.00
24678;DHT22;12800;53.094;8.778;2023-06-14T07:36:18;20.60;55.80
24678;DHT22;12800;53.094;8.778;2023-06-14T07:38:44;20.60;55.60
24678;DHT22;12800;53.094;8.778;2023-06-14T07:41:11;20.70;55.40
24678;DHT22;12800;53.094;8.778;2023-06-14T07:43:36;20.70;55.10
24678;DHT22;12800;53.094;8.778;2023-06-14T07:46:02;20.80;54.80
24678;DHT22;12800;53.094;8.778;2023-06-14T07:48:28;20.80;54.20
24678;DHT22;12800;53.094;8.778;2023-06-14T07:50:54;20.80;53.50
24678;DHT22;12800;53.094;8.778;2023-06-14T07:53:19;20.90;53.30
24678;DHT22;12800;53.094;8.778;2023-06-14T07:55:45;20.90;53.20
24678;DHT22;12800;53.094;8.778;2023-06-14T07:58:12;20.90;53.10
24678;DHT22;12800;53.094;8.778;2023-06-14T08:00:39;21.00;53.10
24678;DHT22;12800;53.094;8.778;2023-06-14T08:03:05;21.00;52.90
24678;DHT22;12800;53.094;8.778;2023-06-14T08:05:30;21.10;52.70
24678;DHT22;12800;53.094;8.778;2023-06-14T08:07:56;21.10;52.80
24678;DHT22;12800;53.094;8.778;2023-06-14T08:10:23;21.20;52.50
24678;DHT22;12800;53.094;8.778;2023-06-14T08:12:48;21.30;52.30
24678;DHT22;12800;53.094;8.778;2023-06-14T08:15:16;21.30;52.30
24678;DHT22;12800;53.094;8.778;2023-06-14T08:17:45;21.30;52.40
24678;DHT22;12800;53.094;8.778;2023-06-14T08:20:11;21.30;52.50
24678;DHT22;12800;53.094;8.778;2023-06-14T08:22:36;21.40;52.20
24678;DHT22;12800;53.094;8.778;2023-06-14T08:25:03;21.50;52.20
24678;DHT22;12800;53.094;8.778;2023-06-14T08:27:30;21.50;52.10
24678;DHT22;12800;53.094;8.778;2023-06-14T08:29:55;21.60;51.90
24678;DHT22;12800;53.094;8.778;2023-06-14T08:32:21;21.60;51.80
24678;DHT22;12800;53.094;8.778;2023-06-14T08:34:47;21.70;51.80
24678;DHT22;12800;53.094;8.778;2023-06-14T08:37:13;21.70;51.90
24678;DHT22;12800;53.094;8.778;2023-06-14T08:39:39;21.90;51.60
24678;DHT22;12800;53.094;8.778;2023-06-14T08:42:05;21.90;51.60
24678;DHT22;12800;53.094;8.778;2023-06-14T08:44:33;22.00;51.60
24678;DHT22;12800;53.094;8.778;2023-06-14T08:47:00;22.00;51.50
24678;DHT22;12800;53.094;8.778;2023-06-14T08:49:26;22.10;51.50
24678;DHT22;12800;53.094;8.778;2023-06-14T08:51:59;22.10;51.30
24678;DHT22;12800;53.094;8.778;2023-06-14T08:54:27;22.20;51.20
24678;DHT22;12800;53.094;8.778;2023-06-14T08:56:56;22.30;51.00
24678;DHT22;12800;53.094;8.778;2023-06-14T08:59:26;22.30;50.70
24678;DHT22;12800;53.094;8.778;2023-06-14T09:01:52;22.40;50.40
24678;DHT22;12800;53.094;8.778;2023-06-14T09:04:23;22.40;50.40
24678;DHT22;12800;53.094;8.778;2023-06-14T09:06:53;22.40;50.40
24678;DHT22;12800;53.094;8.778;2023-06-14T09:09:20;22.50;50.30
24678;DHT22;12800;53.094;8.778;2023-06-14T09:11:46;22.50;50.30
24678;DHT22;12800;53.094;8.778;2023-06-14T09:14:12;22.60;50.30
24678;DHT22;12800;53.094;8.778;2023-06-14T09:16:38;22.70;50.20
24678;DHT22;12800;53.094;8.778;2023-06-14T09:19:04;22.70;49.90
24678;DHT22;12800;53.094;8.778;2023-06-14T09:21:34;22.80;50.60
24678;DHT22;12800;53.094;8.778;2023-06-14T09:23:59;22.80;49.70
24678;DHT22;12800;53.094;8.778;2023-06-14T09:26:25;22.80;49.60
24678;DHT22;12800;53.094;8.778;2023-06-14T09:28:53;22.90;49.40
24678;DHT22;12800;53.094;8.778;2023-06-14T09:31:21;22.90;49.30
24678;DHT22;12800;53.094;8.778;2023-06-14T09:33:51;23.00;49.30
24678;DHT22;12800;53.094;8.778;2023-06-14T09:36:24;23.00;49.30
24678;DHT22;12800;53.094;8.778;2023-06-14T09:38:58;23.10;49.10
24678;DHT22;12800;53.094;8.778;2023-06-14T09:41:36;23.10;48.80
24678;DHT22;12800;53.094;8.778;2023-06-14T09:44:07;23.20;48.80
24678;DHT22;12800;53.094;8.778;2023-06-14T09:46:33;23.10;48.80
24678;DHT22;12800;53.094;8.778;2023-06-14T09:49:00;23.20;48.70
24678;DHT22;12800;53.094;8.778;2023-06-14T09:51:27;23.20;49.30
24678;DHT22;12800;53.094;8.778;2023-06-14T09:53:58;23.20;48.60
24678;DHT22;12800;53.094;8.778;2023-06-14T09:56:28;23.30;48.70
24678;DHT22;12800;53.094;8.778;2023-06-14T09:58:57;23.30;48.60
24678;DHT22;12800;53.094;8.778;2023-06-14T10:01:28;23.40;48.30
24678;DHT22;12800;53.094;8.778;2023-06-14T10:03:58;23.50;48.20
24678;DHT22;12800;53.094;8.778;2023-06-14T10:06:26;23.60;48.20
24678;DHT22;12800;53.094;8.778;2023-06-14T10:08:56;23.70;47.90
24678;DHT22;12800;53.094;8.778;2023-06-14T10:11:23;23.80;47.70
24678;DHT22;12800;53.094;8.778;2023-06-14T10:13:50;23.90;47.50
24678;DHT22;12800;53.094;8.778;2023-06-14T10:16:56;23.90;47.20
24678;DHT22;12800;53.094;8.778;2023-06-14T10:19:29;24.00;46.80
24678;DHT22;12800;53.094;8.778;2023-06-14T10:22:17;24.00;46.50
24678;DHT22;12800;53.094;8.778;2023-06-14T10:24:45;24.10;46.50
24678;DHT22;12800;53.094;8.778;2023-06-14T10:27:13;24.10;46.60
24678;DHT22;12800;53.094;8.778;2023-06-14T10:30:02;24.20;46.60
24678;DHT22;12800;53.094;8.778;2023-06-14T10:32:28;24.20;46.30
24678;DHT22;12800;53.094;8.778;2023-06-14T10:34:56;24.30;46.60
24678;DHT22;12800;53.094;8.778;2023-06-14T10:37:22;24.40;46.20
24678;DHT22;12800;53.094;8.778;2023-06-14T10:39:50;24.40;45.90
24678;DHT22;12800;53.094;8.778;2023-06-14T10:42:16;24.40;45.70
24678;DHT22;12800;53.094;8.778;2023-06-14T10:44:43;24.30;45.70
24678;DHT22;12800;53.094;8.778;2023-06-14T10:47:36;24.40;45.70
24678;DHT22;12800;53.094;8.778;2023-06-14T10:50:04;24.50;45.50
24678;DHT22;12800;53.094;8.778;2023-06-14T10:52:42;24.40;45.70
24678;DHT22;12800;53.094;8.778;2023-06-14T10:55:18;24.40;45.60
24678;DHT22;12800;53.094;8.778;2023-06-14T10:57:54;24.40;45.70
24678;DHT22;12800;53.094;8.778;2023-06-14T11:00:25;24.50;45.70
24678;DHT22;12800;53.094;8.778;2023-06-14T11:05:48;24.70;45.30
24678;DHT22;12800;53.094;8.778;2023-06-14T11:08:22;24.70;45.10
24678;DHT22;12800;53.094;8.778;2023-06-14T11:10:54;24.70;45.10
24678;DHT22;12800;53.094;8.778;2023-06-14T11:13:19;24.80;44.90
24678;DHT22;12800;53.094;8.778;2023-06-14T11:15:47;24.80;44.20
24678;DHT22;12800;53.094;8.778;2023-06-14T11:18:13;24.80;44.10
24678;DHT22;12800;53.094;8.778;2023-06-14T11:20:39;24.80;43.90
24678;DHT22;12800;53.094;8.778;2023-06-14T11:23:05;24.80;44.20
24678;DHT22;12800;53.094;8.778;2023-06-14T11:25:31;24.90;44.10
24678;DHT22;12800;53.094;8.778;2023-06-14T11:27:58;25.00;43.90
24678;DHT22;12800;53.094;8.778;2023-06-14T11:30:24;25.10;44.00
24678;DHT22;12800;53.094;8.778;2023-06-14T11:32:54;25.20;43.60
24678;DHT22;12800;53.094;8.778;2023-06-14T11:35:23;25.30;43.30
24678;DHT22;12800;53.094;8.778;2023-06-14T11:37:56;25.40;43.70
24678;DHT22;12800;53.094;8.778;2023-06-14T11:40:25;25.60;42.70
24678;DHT22;12800;53.094;8.778;2023-06-14T11:42:59;25.70;42.70
24678;DHT22;12800;53.094;8.778;2023-06-14T11:45:25;26.00;42.60
24678;DHT22;12800;53.094;8.778;2023-06-14T11:47:51;26.20;42.50
24678;DHT22;12800;53.094;8.778;2023-06-14T11:50:16;26.20;42.10
24678;DHT22;12800;53.094;8.778;2023-06-14T11:52:42;26.10;41.80
24678;DHT22;12800;53.094;8.778;2023-06-14T11:55:08;26.00;41.90
24678;DHT22;12800;53.094;8.778;2023-06-14T11:57:34;25.90;42.10
24678;DHT22;12800;53.094;8.778;2023-06-14T12:00:04;25.80;42.00
24678;DHT22;12800;53.094;8.778;2023-06-14T12:02:40;25.70;42.00
24678;DHT22;12800;53.094;8.778;2023-06-14T12:05:06;25.70;42.30
24678;DHT22;12800;53.094;8.778;2023-06-14T12:07:36;25.80;42.40
24678;DHT22;12800;53.094;8.778;2023-06-14T12:12:28;26.20;41.80
24678;DHT22;12800;53.094;8.778;2023-06-14T12:14:57;26.40;41.80
24678;DHT22;12800;53.094;8.778;2023-06-14T12:17:23;26.50;41.70
24678;DHT22;12800;53.094;8.778;2023-06-14T12:19:49;26.60;41.30
24678;DHT22;12800;53.094;8.778;2023-06-14T12:22:16;26.80;41.30
24678;DHT22;12800;53.094;8.778;2023-06-14T12:24:45;26.80;40.90
24678;DHT22;12800;53.094;8.778;2023-06-14T12:27:12;26.90;40.60
24678;DHT22;12800;53.094;8.778;2023-06-14T12:29:41;26.90;40.70
24678;DHT22;12800;53.094;8.778;2023-06-14T12:32:09;26.90;40.60
24678;DHT22;12800;53.094;8.778;2023-06-14T12:34:35;26.90;40.50
24678;DHT22;12800;53.094;8.778;2023-06-14T12:37:01;26.70;41.20
24678;DHT22;12800;53.094;8.778;2023-06-14T12:39:27;26.60;41.10
24678;DHT22;12800;53.094;8.778;2023-06-14T12:41:53;26.60;41.10
24678;DHT22;12800;53.094;8.778;2023-06-14T12:44:19;26.50;41.10
24678;DHT22;12800;53.094;8.778;2023-06-14T12:46:46;26.60;41.80
24678;DHT22;12800;53.094;8.778;2023-06-14T12:49:12;26.70;41.20
24678;DHT22;12800;53.094;8.778;2023-06-14T12:51:39;26.60;41.10
24678;DHT22;12800;53.094;8.778;2023-06-14T12:54:05;26.60;41.10
24678;DHT22;12800;53.094;8.778;2023-06-14T12:56:30;26.40;41.00
24678;DHT22;12800;53.094;8.778;2023-06-14T12:58:56;26.20;40.90
24678;DHT22;12800;53.094;8.778;2023-06-14T13:01:22;26.10;41.10
24678;DHT22;12800;53.094;8.778;2023-06-14T13:03:47;26.00;41.40
24678;DHT22;12800;53.094;8.778;2023-06-14T13:06:13;26.00;41.80
24678;DHT22;12800;53.094;8.778;2023-06-14T13:08:39;26.10;41.70
24678;DHT22;12800;53.094;8.778;2023-06-14T13:11:05;26.20;41.70
24678;DHT22;12800;53.094;8.778;2023-06-14T13:13:30;26.10;42.30
24678;DHT22;12800;53.094;8.778;2023-06-14T13:15:56;26.00;41.50
24678;DHT22;12800;53.094;8.778;2023-06-14T13:18:21;26.00;41.50
24678;DHT22;12800;53.094;8.778;2023-06-14T13:20:47;25.90;41.50
24678;DHT22;12800;53.094;8.778;2023-06-14T13:23:13;25.90;41.80
24678;DHT22;12800;53.094;8.778;2023-06-14T13:25:39;26.10;42.50
24678;DHT22;12800;53.094;8.778;2023-06-14T13:28:05;26.40;41.70
24678;DHT22;12800;53.094;8.778;2023-06-14T13:30:31;26.70;41.50
24678;DHT22;12800;53.094;8.778;2023-06-14T13:32:57;27.00;41.20
24678;DHT22;12800;53.094;8.778;2023-06-14T13:35:23;27.30;40.60
24678;DHT22;12800;53.094;8.778;2023-06-14T13:37:49;27.70;40.10
24678;DHT22;12800;53.094;8.778;2023-06-14T13:40:15;27.90;39.40
24678;DHT22;12800;53.094;8.778;2023-06-14T13:42:41;28.10;39.30
24678;DHT22;12800;53.094;8.778;2023-06-14T13:45:08;28.20;38.30
24678;DHT22;12800;53.094;8.778;2023-06-14T13:47:34;28.30;38.20
24678;DHT22;12800;53.094;8.778;2023-06-14T13:49:59;28.30;38.90
24678;DHT22;12800;53.094;8.778;2023-06-14T13:52:25;28.30;39.10
24678;DHT22;12800;53.094;8.778;2023-06-14T13:54:51;28.50;39.00
24678;DHT22;12800;53.094;8.778;2023-06-14T13:57:17;28.60;38.60
24678;DHT22;12800;53.094;8.778;2023-06-14T13:59:43;28.60;37.90
24678;DHT22;12800;53.094;8.778;2023-06-14T14:02:12;28.40;37.90
24678;DHT22;12800;53.094;8.778;2023-06-14T14:04:38;28.20;38.00
24678;DHT22;12800;53.094;8.778;2023-06-14T14:07:05;28.00;38.20
24678;DHT22;12800;53.094;8.778;2023-06-14T14:09:31;27.80;38.40
24678;DHT22;12800;53.094;8.778;2023-06-14T14:11:58;27.60;38.60
24678;DHT22;12800;53.094;8.778;2023-06-14T14:14:24;27.40;38.70
24678;DHT22;12800;53.094;8.778;2023-06-14T14:16:50;27.30;39.20
24678;DHT22;12800;53.094;8.778;2023-06-14T14:19:20;27.10;39.40
24678;DHT22;12800;53.094;8.778;2023-06-14T14:21:46;26.90;39.50
24678;DHT22;12800;53.094;8.778;2023-06-14T14:24:12;26.80;39.70
24678;DHT22;12800;53.094;8.778;2023-06-14T14:26:39;26.80;39.80
24678;DHT22;12800;53.094;8.778;2023-06-14T14:29:05;26.80;39.70
24678;DHT22;12800;53.094;8.778;2023-06-14T14:31:31;27.00;39.90
24678;DHT22;12800;53.094;8.778;2023-06-14T14:33:56;27.30;39.40
24678;DHT22;12800;53.094;8.778;2023-06-14T14:36:22;27.60;39.60
24678;DHT22;12800;53.094;8.778;2023-06-14T14:38:47;28.00;39.20
24678;DHT22;12800;53.094;8.778;2023-06-14T14:41:13;28.20;38.20
24678;DHT22;12800;53.094;8.778;2023-06-14T14:43:39;28.20;38.40
24678;DHT22;12800;53.094;8.778;2023-06-14T14:46:05;28.20;38.00
24678;DHT22;12800;53.094;8.778;2023-06-14T14:48:30;28.10;38.10
24678;DHT22;12800;53.094;8.778;2023-06-14T14:50:56;27.90;38.10
24678;DHT22;12800;53.094;8.778;2023-06-14T14:53:22;27.70;38.10
24678;DHT22;12800;53.094;8.778;2023-06-14T14:55:47;27.60;38.40
24678;DHT22;12800;53.094;8.778;2023-06-14T14:58:13;27.40;38.30
24678;DHT22;12800;53.094;8.778;2023-06-14T15:00:46;27.30;38.40
24678;DHT22;12800;53.094;8.778;2023-06-14T15:03:11;27.20;38.70
24678;DHT22;12800;53.094;8.778;2023-06-14T15:05:37;27.10;38.80
24678;DHT22;12800;53.094;8.778;2023-06-14T15:08:03;27.00;38.80
24678;DHT22;12800;53.094;8.778;2023-06-14T15:10:30;26.90;38.70
24678;DHT22;12800;53.094;8.778;2023-06-14T15:12:56;26.80;39.10
24678;DHT22;12800;53.094;8.778;2023-06-14T15:15:22;26.80;39.00
24678;DHT22;12800;53.094;8.778;2023-06-14T15:17:48;26.70;39.00
24678;DHT22;12800;53.094;8.778;2023-06-14T15:20:14;26.60;39.10
24678;DHT22;12800;53.094;8.778;2023-06-14T15:22:40;26.60;39.20
24678;DHT22;12800;53.094;8.778;2023-06-14T15:25:07;26.60;39.30
24678;DHT22;12800;53.094;8.778;2023-06-14T15:27:32;26.50;39.60
24678;DHT22;12800;53.094;8.778;2023-06-14T15:29:58;26.50;39.60
24678;DHT22;12800;53.094;8.778;2023-06-14T15:32:24;26.50;39.60
24678;DHT22;12800;53.094;8.778;2023-06-14T15:34:49;26.60;39.70
24678;DHT22;12800;53.094;8.778;2023-06-14T15:37:15;26.90;40.00
24678;DHT22;12800;53.094;8.778;2023-06-14T15:39:41;27.50;39.70